sensor_id;sensor_type;location;lat;lon;timestamp;temperature;humidity
32524;DHT22;18965;52.242;20.886;2022-12-19T00:08:46;-1.70;74.00
32524;DHT22;18965;52.242;20.886;2022-12-19T00:11:13;-1.80;74.00
32524;DHT22;18965;52.242;20.886;2022-12-19T00:16:08;-1.80;73.50
32524;DHT22;18965;52.242;20.886;2022-12-19T00:21:03;-1.80;73.80
32524;DHT22;18965;52.242;20.886;2022-12-19T00:23:31;-1.80;73.90
32524;DHT22;18965;52.242;20.886;2022-12-19T00:28:44;-1.90;73.50
32524;DHT22;18965;52.242;20.886;2022-12-19T00:36:10;-1.90;74.10
32524;DHT22;18965;52.242;20.886;2022-12-19T00:38:36;-1.80;91.20
32524;DHT22;18965;52.242;20.886;2022-12-19T00:41:11;-1.70;91.20
32524;DHT22;18965;52.242;20.886;2022-12-19T00:43:38;-1.90;73.80
32524;DHT22;18965;52.242;20.886;2022-12-19T00:46:07;-1.30;90.80
32524;DHT22;18965;52.242;20.886;2022-12-19T00:51:10;-2.10;91.20
32524;DHT22;18965;52.242;20.886;2022-12-19T01:03:24;-2.20;73.50
32524;DHT22;18965;52.242;20.886;2022-12-19T01:10:47;-2.00;91.90
32524;DHT22;18965;52.242;20.886;2022-12-19T01:18:08;-2.20;73.90
32524;DHT22;18965;52.242;20.886;2022-12-19T01:47:48;-2.20;73.50
32524;DHT22;18965;52.242;20.886;2022-12-19T01:52:46;-2.30;73.50
32524;DHT22;18965;52.242;20.886;2022-12-19T01:55:13;-2.30;73.40
32524;DHT22;18965;52.242;20.886;2022-12-19T02:00:07;-2.50;91.80
32524;DHT22;18965;52.242;20.886;2022-12-19T02:02:44;-2.30;73.60
32524;DHT22;18965;52.242;20.886;2022-12-19T02:07:37;-2.40;73.00
32524;DHT22;18965;52.242;20.886;2022-12-19T02:10:04;-2.20;91.00
32524;DHT22;18965;52.242;20.886;2022-12-19T02:12:35;-2.50;73.10
32524;DHT22;18965;52.242;20.886;2022-12-19T02:15:03;-2.50;73.40
32524;DHT22;18965;52.242;20.886;2022-12-19T02:28:55;-2.50;73.80
32524;DHT22;18965;52.242;20.886;2022-12-19T02:33:59;-2.50;90.70
32524;DHT22;18965;52.242;20.886;2022-12-19T02:39:05;-2.60;73.30
32524;DHT22;18965;52.242;20.886;2022-12-19T02:41:36;-2.60;73.30
32524;DHT22;18965;52.242;20.886;2022-12-19T02:44:24;-2.70;73.00
32524;DHT22;18965;52.242;20.886;2022-12-19T02:46:51;-2.70;72.90
32524;DHT22;18965;52.242;20.886;2022-12-19T02:56:41;-3.00;72.60
32524;DHT22;18965;52.242;20.886;2022-12-19T03:10:15;-3.60;72.60
32524;DHT22;18965;52.242;20.886;2022-12-19T03:13:14;-3.70;72.50
32524;DHT22;18965;52.242;20.886;2022-12-19T03:30:57;-4.20;73.00
32524;DHT22;18965;52.242;20.886;2022-12-19T03:33:25;-4.30;72.90
32524;DHT22;18965;52.242;20.886;2022-12-19T03:35:53;-4.30;73.10
32524;DHT22;18965;52.242;20.886;2022-12-19T03:40:48;-4.30;73.30
32524;DHT22;18965;52.242;20.886;2022-12-19T03:48:46;-4.50;73.30
32524;DHT22;18965;52.242;20.886;2022-12-19T03:54:00;-4.60;73.50
32524;DHT22;18965;52.242;20.886;2022-12-19T03:56:41;-4.60;73.60
32524;DHT22;18965;52.242;20.886;2022-12-19T03:59:30;-4.60;73.70
32524;DHT22;18965;52.242;20.886;2022-12-19T04:01:58;-4.70;73.70
32524;DHT22;18965;52.242;20.886;2022-12-19T04:09:20;-4.80;73.80
32524;DHT22;18965;52.242;20.886;2022-12-19T04:11:51;-4.80;73.80
32524;DHT22;18965;52.242;20.886;2022-12-19T04:14:28;-4.80;74.00
32524;DHT22;18965;52.242;20.886;2022-12-19T04:27:07;-4.90;73.70
32524;DHT22;18965;52.242;20.886;2022-12-19T04:29:36;-4.90;74.90
32524;DHT22;18965;52.242;20.886;2022-12-19T04:32:04;-4.90;74.30
32524;DHT22;18965;52.242;20.886;2022-12-19T04:58:59;-5.20;73.80
32524;DHT22;18965;52.242;20.886;2022-12-19T05:06:18;-5.20;74.00
32524;DHT22;18965;52.242;20.886;2022-12-19T05:11:15;-5.30;73.80
32524;DHT22;18965;52.242;20.886;2022-12-19T05:16:09;-5.30;73.80
32524;DHT22;18965;52.242;20.886;2022-12-19T05:18:37;-5.20;94.30
32524;DHT22;18965;52.242;20.886;2022-12-19T05:21:03;-4.40;94.30
32524;DHT22;18965;52.242;20.886;2022-12-19T05:26:00;-5.40;73.70
32524;DHT22;18965;52.242;20.886;2022-12-19T05:31:01;-5.60;73.90
32524;DHT22;18965;52.242;20.886;2022-12-19T05:45:39;-5.70;78.30
32524;DHT22;18965;52.242;20.886;2022-12-19T06:05:08;-5.80;94.00
32524;DHT22;18965;52.242;20.886;2022-12-19T06:29:29;-5.90;74.90
32524;DHT22;18965;52.242;20.886;2022-12-19T06:31:55;-6.00;75.30
32524;DHT22;18965;52.242;20.886;2022-12-19T06:46:52;-6.00;74.40
32524;DHT22;18965;52.242;20.886;2022-12-19T06:54:11;-6.00;89.00
32524;DHT22;18965;52.242;20.886;2022-12-19T06:56:39;-6.10;74.70
32524;DHT22;18965;52.242;20.886;2022-12-19T06:59:06;-6.10;74.80
32524;DHT22;18965;52.242;20.886;2022-12-19T07:01:40;-6.00;89.10
32524;DHT22;18965;52.242;20.886;2022-12-19T07:04:09;-6.10;74.80
32524;DHT22;18965;52.242;20.886;2022-12-19T07:21:12;-6.10;79.20
32524;DHT22;18965;52.242;20.886;2022-12-19T07:23:38;-5.60;84.90
32524;DHT22;18965;52.242;20.886;2022-12-19T07:26:04;-6.00;77.30
32524;DHT22;18965;52.242;20.886;2022-12-19T07:28:32;-6.10;74.70
32524;DHT22;18965;52.242;20.886;2022-12-19T07:30:58;-6.10;85.10
32524;DHT22;18965;52.242;20.886;2022-12-19T07:33:24;-6.30;84.20
32524;DHT22;18965;52.242;20.886;2022-12-19T08:59:14;-4.70;75.50
32524;DHT22;18965;52.242;20.886;2022-12-19T09:01:40;-4.60;75.60
32524;DHT22;18965;52.242;20.886;2022-12-19T09:04:06;-4.50;75.60
32524;DHT22;18965;52.242;20.886;2022-12-19T09:06:32;-4.40;75.50
32524;DHT22;18965;52.242;20.886;2022-12-19T09:08:57;-4.40;75.30
32524;DHT22;18965;52.242;20.886;2022-12-19T09:11:24;-4.30;75.20
32524;DHT22;18965;52.242;20.886;2022-12-19T09:13:49;-4.20;75.20
32524;DHT22;18965;52.242;20.886;2022-12-19T09:16:19;-4.20;74.80
32524;DHT22;18965;52.242;20.886;2022-12-19T09:18:50;-4.10;74.60
32524;DHT22;18965;52.242;20.886;2022-12-19T09:21:17;-4.10;74.40
32524;DHT22;18965;52.242;20.886;2022-12-19T09:23:47;-4.10;74.30
32524;DHT22;18965;52.242;20.886;2022-12-19T09:26:14;-4.10;74.10
32524;DHT22;18965;52.242;20.886;2022-12-19T09:28:40;-4.00;74.10
32524;DHT22;18965;52.242;20.886;2022-12-19T09:31:11;-4.00;73.80
32524;DHT22;18965;52.242;20.886;2022-12-19T09:33:38;-4.00;73.90
32524;DHT22;18965;52.242;20.886;2022-12-19T09:36:05;-4.00;73.70
32524;DHT22;18965;52.242;20.886;2022-12-19T09:38:32;-3.90;73.90
32524;DHT22;18965;52.242;20.886;2022-12-19T09:44:02;-3.80;74.00
32524;DHT22;18965;52.242;20.886;2022-12-19T09:49:13;-3.60;73.80
32524;DHT22;18965;52.242;20.886;2022-12-19T09:52:05;-3.60;73.30
32524;DHT22;18965;52.242;20.886;2022-12-19T09:57:05;-3.50;73.40
32524;DHT22;18965;52.242;20.886;2022-12-19T09:59:43;-3.40;73.40
32524;DHT22;18965;52.242;20.886;2022-12-19T10:05:47;-3.30;73.20
32524;DHT22;18965;52.242;20.886;2022-12-19T10:07:47;-3.30;72.90
32524;DHT22;18965;52.242;20.886;2022-12-19T10:10:26;-3.20;73.00
32524;DHT22;18965;52.242;20.886;2022-12-19T10:18:23;-3.10;72.60
32524;DHT22;18965;52.242;20.886;2022-12-19T10:21:07;-3.10;72.60
32524;DHT22;18965;52.242;20.886;2022-12-19T10:26:22;-3.00;72.50
32524;DHT22;18965;52.242;20.886;2022-12-19T10:31:40;-3.00;72.10
32524;DHT22;18965;52.242;20.886;2022-12-19T10:34:22;-3.00;72.30
32524;DHT22;18965;52.242;20.886;2022-12-19T10:36:51;-3.00;72.20
32524;DHT22;18965;52.242;20.886;2022-12-19T10:40:19;-2.90;71.40
32524;DHT22;18965;52.242;20.886;2022-12-19T10:47:25;-2.90;71.90
32524;DHT22;18965;52.242;20.886;2022-12-19T10:50:59;-2.90;71.80
32524;DHT22;18965;52.242;20.886;2022-12-19T11:02:43;-2.80;71.70
32524;DHT22;18965;52.242;20.886;2022-12-19T11:05:24;-2.80;71.60
32524;DHT22;18965;52.242;20.886;2022-12-19T11:08:01;-2.70;71.60
32524;DHT22;18965;52.242;20.886;2022-12-19T11:10:43;-2.70;71.60
32524;DHT22;18965;52.242;20.886;2022-12-19T11:15:59;-2.60;72.60
32524;DHT22;18965;52.242;20.886;2022-12-19T11:18:45;-2.60;71.70
32524;DHT22;18965;52.242;20.886;2022-12-19T11:21:29;-2.60;72.00
32524;DHT22;18965;52.242;20.886;2022-12-19T11:26:45;-2.50;72.00
32524;DHT22;18965;52.242;20.886;2022-12-19T11:29:21;-2.50;71.30
32524;DHT22;18965;52.242;20.886;2022-12-19T11:31:54;-2.50;71.40
32524;DHT22;18965;52.242;20.886;2022-12-19T11:34:23;-2.40;71.60
32524;DHT22;18965;52.242;20.886;2022-12-19T11:45:10;-2.30;71.20
32524;DHT22;18965;52.242;20.886;2022-12-19T11:50:55;-2.40;70.80
32524;DHT22;18965;52.242;20.886;2022-12-19T11:53:43;-2.40;70.80
32524;DHT22;18965;52.242;20.886;2022-12-19T11:56:13;-2.40;70.50
32524;DHT22;18965;52.242;20.886;2022-12-19T11:58:46;-2.40;70.70
32524;DHT22;18965;52.242;20.886;2022-12-19T12:01:34;-2.40;70.90
32524;DHT22;18965;52.242;20.886;2022-12-19T12:06:50;-2.30;71.20
32524;DHT22;18965;52.242;20.886;2022-12-19T12:09:29;-2.30;70.80
32524;DHT22;18965;52.242;20.886;2022-12-19T12:12:04;-2.30;70.00
32524;DHT22;18965;52.242;20.886;2022-12-19T12:15:37;-2.30;69.80
32524;DHT22;18965;52.242;20.886;2022-12-19T12:18:00;-2.30;70.10
32524;DHT22;18965;52.242;20.886;2022-12-19T12:26:02;-2.30;70.30
32524;DHT22;18965;52.242;20.886;2022-12-19T12:28:57;-2.30;70.10
32524;DHT22;18965;52.242;20.886;2022-12-19T12:40:01;-4.10;69.20
32524;DHT22;18965;52.242;20.886;2022-12-19T12:44:58;-2.30;69.90
32524;DHT22;18965;52.242;20.886;2022-12-19T12:47:28;-2.30;69.80
32524;DHT22;18965;52.242;20.886;2022-12-19T12:50:06;-2.30;69.90
32524;DHT22;18965;52.242;20.886;2022-12-19T12:53:19;-2.30;69.80
32524;DHT22;18965;52.242;20.886;2022-12-19T12:55:30;-2.30;69.90
32524;DHT22;18965;52.242;20.886;2022-12-19T12:57:56;-2.30;70.00
32524;DHT22;18965;52.242;20.886;2022-12-19T13:00:32;-2.30;70.10
32524;DHT22;18965;52.242;20.886;2022-12-19T13:03:08;-2.40;70.10
32524;DHT22;18965;52.242;20.886;2022-12-19T13:08:44;-2.40;69.80
32524;DHT22;18965;52.242;20.886;2022-12-19T13:17:05;-2.50;70.20
32524;DHT22;18965;52.242;20.886;2022-12-19T13:19:35;-2.50;70.40
32524;DHT22;18965;52.242;20.886;2022-12-19T13:24:48;-2.50;70.20
32524;DHT22;18965;52.242;20.886;2022-12-19T13:32:26;-2.60;70.30
32524;DHT22;18965;52.242;20.886;2022-12-19T13:34:58;-2.60;70.30
32524;DHT22;18965;52.242;20.886;2022-12-19T13:46:23;-2.70;70.70
32524;DHT22;18965;52.242;20.886;2022-12-19T13:48:55;-2.70;70.70
32524;DHT22;18965;52.242;20.886;2022-12-19T13:51:22;-2.70;70.70
32524;DHT22;18965;52.242;20.886;2022-12-19T13:53:51;-2.80;70.50
32524;DHT22;18965;52.242;20.886;2022-12-19T13:56:18;-2.80;70.50
32524;DHT22;18965;52.242;20.886;2022-12-19T13:58:56;-2.90;70.70
32524;DHT22;18965;52.242;20.886;2022-12-19T14:01:31;-2.90;70.70
32524;DHT22;18965;52.242;20.886;2022-12-19T14:04:03;-2.90;70.70
32524;DHT22;18965;52.242;20.886;2022-12-19T14:06:39;-3.00;70.80
32524;DHT22;18965;52.242;20.886;2022-12-19T14:09:07;-3.00;70.80
32524;DHT22;18965;52.242;20.886;2022-12-19T14:11:42;-3.00;71.00
32524;DHT22;18965;52.242;20.886;2022-12-19T14:14:13;-3.00;71.10
32524;DHT22;18965;52.242;20.886;2022-12-19T14:17:15;-3.10;71.10
32524;DHT22;18965;52.242;20.886;2022-12-19T14:19:50;-3.10;71.10
32524;DHT22;18965;52.242;20.886;2022-12-19T14:27:23;-3.20;71.20
32524;DHT22;18965;52.242;20.886;2022-12-19T14:29:52;-3.20;71.20
32524;DHT22;18965;52.242;20.886;2022-12-19T14:32:18;-3.30;71.40
32524;DHT22;18965;52.242;20.886;2022-12-19T14:34:46;-3.30;71.40
32524;DHT22;18965;52.242;20.886;2022-12-19T14:37:31;-3.30;71.60
32524;DHT22;18965;52.242;20.886;2022-12-19T14:40:00;-3.30;71.50
32524;DHT22;18965;52.242;20.886;2022-12-19T14:42:31;-3.30;71.60
32524;DHT22;18965;52.242;20.886;2022-12-19T14:45:37;-3.30;71.60
32524;DHT22;18965;52.242;20.886;2022-12-19T14:51:09;-3.30;71.60
32524;DHT22;18965;52.242;20.886;2022-12-19T14:53:37;-3.40;71.80
32524;DHT22;18965;52.242;20.886;2022-12-19T14:56:07;-3.30;71.90
32524;DHT22;18965;52.242;20.886;2022-12-19T14:58:36;-3.30;72.00
32524;DHT22;18965;52.242;20.886;2022-12-19T15:04:13;-3.30;72.10
32524;DHT22;18965;52.242;20.886;2022-12-19T15:06:42;-3.40;72.10
32524;DHT22;18965;52.242;20.886;2022-12-19T15:09:13;-3.30;72.10
32524;DHT22;18965;52.242;20.886;2022-12-19T15:11:45;-3.40;72.20
32524;DHT22;18965;52.242;20.886;2022-12-19T15:14:42;-3.30;72.40
32524;DHT22;18965;52.242;20.886;2022-12-19T15:17:24;-3.30;72.50
32524;DHT22;18965;52.242;20.886;2022-12-19T15:19:50;-3.30;72.60
32524;DHT22;18965;52.242;20.886;2022-12-19T15:22:17;-3.30;72.70
32524;DHT22;18965;52.242;20.886;2022-12-19T15:24:43;-3.30;72.90
32524;DHT22;18965;52.242;20.886;2022-12-19T15:27:15;-3.20;72.90
32524;DHT22;18965;52.242;20.886;2022-12-19T15:29:41;-3.20;73.00
32524;DHT22;18965;52.242;20.886;2022-12-19T15:32:17;-3.20;73.10
32524;DHT22;18965;52.242;20.886;2022-12-19T15:34:43;-3.20;73.10
32524;DHT22;18965;52.242;20.886;2022-12-19T15:37:13;-3.10;73.20
32524;DHT22;18965;52.242;20.886;2022-12-19T15:39:40;-3.10;73.40
32524;DHT22;18965;52.242;20.886;2022-12-19T15:42:30;-3.10;73.40
32524;DHT22;18965;52.242;20.886;2022-12-19T15:44:55;-3.00;73.40
32524;DHT22;18965;52.242;20.886;2022-12-19T15:47:27;-3.00;73.20
32524;DHT22;18965;52.242;20.886;2022-12-19T15:49:54;-3.00;73.30
32524;DHT22;18965;52.242;20.886;2022-12-19T15:52:20;-2.90;73.30
32524;DHT22;18965;52.242;20.886;2022-12-19T15:54:46;-2.90;73.30
32524;DHT22;18965;52.242;20.886;2022-12-19T15:57:32;-2.90;73.50
32524;DHT22;18965;52.242;20.886;2022-12-19T16:00:02;-2.80;73.40
32524;DHT22;18965;52.242;20.886;2022-12-19T16:02:29;-2.80;73.40
32524;DHT22;18965;52.242;20.886;2022-12-19T16:04:55;-2.80;73.20
32524;DHT22;18965;52.242;20.886;2022-12-19T16:07:22;-2.80;73.30
32524;DHT22;18965;52.242;20.886;2022-12-19T16:09:50;-2.70;73.40
32524;DHT22;18965;52.242;20.886;2022-12-19T16:12:22;-2.70;73.40
32524;DHT22;18965;52.242;20.886;2022-12-19T16:14:56;-2.70;73.30
32524;DHT22;18965;52.242;20.886;2022-12-19T16:17:24;-2.60;73.30
32524;DHT22;18965;52.242;20.886;2022-12-19T16:19:51;-2.60;73.30
32524;DHT22;18965;52.242;20.886;2022-12-19T16:22:22;-2.60;73.30
32524;DHT22;18965;52.242;20.886;2022-12-19T16:24:48;-2.60;73.40
32524;DHT22;18965;52.242;20.886;2022-12-19T16:27:32;-2.60;73.30
32524;DHT22;18965;52.242;20.886;2022-12-19T16:30:21;-2.60;73.10
32524;DHT22;18965;52.242;20.886;2022-12-19T16:32:49;-2.60;73.00
32524;DHT22;18965;52.242;20.886;2022-12-19T16:35:19;-2.60;73.00
32524;DHT22;18965;52.242;20.886;2022-12-19T16:37:47;-2.60;72.80
32524;DHT22;18965;52.242;20.886;2022-12-19T16:40:20;-2.60;72.90
32524;DHT22;18965;52.242;20.886;2022-12-19T16:42:47;-2.60;73.00
32524;DHT22;18965;52.242;20.886;2022-12-19T16:45:22;-2.60;73.10
32524;DHT22;18965;52.242;20.886;2022-12-19T16:47:48;-2.60;72.90
32524;DHT22;18965;52.242;20.886;2022-12-19T16:50:34;-2.60;73.00
32524;DHT22;18965;52.242;20.886;2022-12-19T16:53:00;-2.60;73.00
32524;DHT22;18965;52.242;20.886;2022-12-19T16:55:26;-2.60;73.00
32524;DHT22;18965;52.242;20.886;2022-12-19T16:57:54;-2.60;73.10
32524;DHT22;18965;52.242;20.886;2022-12-19T17:00:21;-2.60;73.30
32524;DHT22;18965;52.242;20.886;2022-12-19T17:02:51;-2.60;73.20
32524;DHT22;18965;52.242;20.886;2022-12-19T17:05:22;-2.60;73.20
32524;DHT22;18965;52.242;20.886;2022-12-19T17:07:49;-2.60;73.30
32524;DHT22;18965;52.242;20.886;2022-12-19T17:10:16;-2.60;73.40
32524;DHT22;18965;52.242;20.886;2022-12-19T17:12:43;-2.60;73.60
32524;DHT22;18965;52.242;20.886;2022-12-19T17:15:20;-2.50;73.60
32524;DHT22;18965;52.242;20.886;2022-12-19T17:17:47;-2.50;73.50
32524;DHT22;18965;52.242;20.886;2022-12-19T17:20:16;-2.50;73.30
32524;DHT22;18965;52.242;20.886;2022-12-19T17:22:43;-2.50;73.20
32524;DHT22;18965;52.242;20.886;2022-12-19T17:25:22;-2.50;73.20
32524;DHT22;18965;52.242;20.886;2022-12-19T17:27:48;-2.50;73.20
32524;DHT22;18965;52.242;20.886;2022-12-19T17:30:15;-2.50;73.40
32524;DHT22;18965;52.242;20.886;2022-12-19T17:32:42;-2.40;73.40
32524;DHT22;18965;52.242;20.886;2022-12-19T17:35:20;-2.40;73.40
32524;DHT22;18965;52.242;20.886;2022-12-19T17:37:51;-2.40;73.20
32524;DHT22;18965;52.242;20.886;2022-12-19T17:40:23;-2.40;73.20
32524;DHT22;18965;52.242;20.886;2022-12-19T17:42:50;-2.40;73.20
32524;DHT22;18965;52.242;20.886;2022-12-19T17:45:16;-2.30;73.50
32524;DHT22;18965;52.242;20.886;2022-12-19T17:47:43;-2.30;73.50
32524;DHT22;18965;52.242;20.886;2022-12-19T17:50:33;-2.30;73.50
32524;DHT22;18965;52.242;20.886;2022-12-19T17:52:59;-2.20;73.60
32524;DHT22;18965;52.242;20.886;2022-12-19T17:55:27;-2.10;73.70
32524;DHT22;18965;52.242;20.886;2022-12-19T17:57:54;-2.10;73.80
32524;DHT22;18965;52.242;20.886;2022-12-19T18:00:23;-2.10;73.80
32524;DHT22;18965;52.242;20.886;2022-12-19T18:02:51;-2.00;73.80
32524;DHT22;18965;52.242;20.886;2022-12-19T18:05:26;-1.90;73.60
32524;DHT22;18965;52.242;20.886;2022-12-19T18:07:53;-1.90;73.60
32524;DHT22;18965;52.242;20.886;2022-12-19T18:10:22;-1.90;73.60
32524;DHT22;18965;52.242;20.886;2022-12-19T18:12:49;-1.80;73.70
32524;DHT22;18965;52.242;20.886;2022-12-19T18:15:15;-1.80;73.80
32524;DHT22;18965;52.242;20.886;2022-12-19T18:17:41;-1.70;73.80
32524;DHT22;18965;52.242;20.886;2022-12-19T18:20:37;-1.70;73.60
32524;DHT22;18965;52.242;20.886;2022-12-19T18:23:13;-1.60;73.80
32524;DHT22;18965;52.242;20.886;2022-12-19T18:25:40;-1.60;73.60
32524;DHT22;18965;52.242;20.886;2022-12-19T18:28:05;-1.60;73.50
32524;DHT22;18965;52.242;20.886;2022-12-19T18:30:31;-1.50;73.40
32524;DHT22;18965;52.242;20.886;2022-12-19T18:33:00;-1.50;73.20
32524;DHT22;18965;52.242;20.886;2022-12-19T18:35:46;-1.50;73.50
32524;DHT22;18965;52.242;20.886;2022-12-19T18:38:18;-1.40;73.60
32524;DHT22;18965;52.242;20.886;2022-12-19T18:40:45;-1.40;73.60
32524;DHT22;18965;52.242;20.886;2022-12-19T18:43:12;-1.40;73.60
32524;DHT22;18965;52.242;20.886;2022-12-19T18:45:41;-1.30;73.40
32524;DHT22;18965;52.242;20.886;2022-12-19T18:48:13;-1.30;73.30
32524;DHT22;18965;52.242;20.886;2022-12-19T18:50:40;-1.30;73.50
32524;DHT22;18965;52.242;20.886;2022-12-19T18:53:11;-1.20;73.70
32524;DHT22;18965;52.242;20.886;2022-12-19T18:55:37;-1.20;73.50
32524;DHT22;18965;52.242;20.886;2022-12-19T18:58:02;-1.20;73.40
32524;DHT22;18965;52.242;20.886;2022-12-19T19:00:28;-1.10;73.50
32524;DHT22;18965;52.242;20.886;2022-12-19T19:03:03;-1.10;73.50
32524;DHT22;18965;52.242;20.886;2022-12-19T19:05:31;-1.10;73.50
32524;DHT22;18965;52.242;20.886;2022-12-19T19:10:37;-1.00;73.10
32524;DHT22;18965;52.242;20.886;2022-12-19T19:13:03;-1.00;73.00
32524;DHT22;18965;52.242;20.886;2022-12-19T19:15:32;-1.00;73.10
32524;DHT22;18965;52.242;20.886;2022-12-19T19:18:00;-0.90;73.00
32524;DHT22;18965;52.242;20.886;2022-12-19T19:20:29;-0.90;72.90
32524;DHT22;18965;52.242;20.886;2022-12-19T19:22:56;-0.90;73.10
32524;DHT22;18965;52.242;20.886;2022-12-19T19:25:22;-0.90;73.10
32524;DHT22;18965;52.242;20.886;2022-12-19T19:27:48;-0.90;72.90
32524;DHT22;18965;52.242;20.886;2022-12-19T19:30:15;-0.80;73.20
32524;DHT22;18965;52.242;20.886;2022-12-19T19:32:48;-0.70;73.30
32524;DHT22;18965;52.242;20.886;2022-12-19T19:35:17;-0.70;73.10
32524;DHT22;18965;52.242;20.886;2022-12-19T19:37:45;-0.70;72.70
32524;DHT22;18965;52.242;20.886;2022-12-19T19:40:12;-0.70;72.70
32524;DHT22;18965;52.242;20.886;2022-12-19T19:42:38;-0.70;72.80
32524;DHT22;18965;52.242;20.886;2022-12-19T19:45:05;-0.60;72.80
32524;DHT22;18965;52.242;20.886;2022-12-19T19:47:31;-0.60;72.80
32524;DHT22;18965;52.242;20.886;2022-12-19T19:50:00;-0.60;72.80
32524;DHT22;18965;52.242;20.886;2022-12-19T19:52:26;-0.60;72.90
32524;DHT22;18965;52.242;20.886;2022-12-19T19:54:52;-0.50;72.90
32524;DHT22;18965;52.242;20.886;2022-12-19T19:57:18;-0.50;72.90
32524;DHT22;18965;52.242;20.886;2022-12-19T19:59:43;-0.50;72.90
32524;DHT22;18965;52.242;20.886;2022-12-19T20:02:09;-0.50;72.90
32524;DHT22;18965;52.242;20.886;2022-12-19T20:04:36;-0.40;72.90
32524;DHT22;18965;52.242;20.886;2022-12-19T20:07:02;-0.40;72.90
32524;DHT22;18965;52.242;20.886;2022-12-19T20:09:28;-0.40;72.90
32524;DHT22;18965;52.242;20.886;2022-12-19T20:11:54;-0.30;72.80
32524;DHT22;18965;52.242;20.886;2022-12-19T20:14:20;-0.30;72.80
32524;DHT22;18965;52.242;20.886;2022-12-19T20:16:47;-0.30;73.00
32524;DHT22;18965;52.242;20.886;2022-12-19T20:19:12;-0.20;73.00
32524;DHT22;18965;52.242;20.886;2022-12-19T20:21:41;-0.20;72.80
32524;DHT22;18965;52.242;20.886;2022-12-19T20:24:06;-0.20;72.90
32524;DHT22;18965;52.242;20.886;2022-12-19T20:26:33;-0.10;72.80
32524;DHT22;18965;52.242;20.886;2022-12-19T20:28:59;-0.10;72.70
32524;DHT22;18965;52.242;20.886;2022-12-19T20:31:25;-0.10;72.50
32524;DHT22;18965;52.242;20.886;2022-12-19T20:33:54;0.00;72.60
32524;DHT22;18965;52.242;20.886;2022-12-19T20:36:20;-0.10;72.60
32524;DHT22;18965;52.242;20.886;2022-12-19T20:38:46;0.00;72.80
32524;DHT22;18965;52.242;20.886;2022-12-19T20:41:14;0.00;72.70
32524;DHT22;18965;52.242;20.886;2022-12-19T20:43:39;0.10;72.70
32524;DHT22;18965;52.242;20.886;2022-12-19T20:46:11;0.10;72.60
32524;DHT22;18965;52.242;20.886;2022-12-19T20:48:37;0.10;72.70
32524;DHT22;18965;52.242;20.886;2022-12-19T20:51:04;0.20;72.70
32524;DHT22;18965;52.242;20.886;2022-12-19T20:53:32;0.20;72.40
32524;DHT22;18965;52.242;20.886;2022-12-19T20:55:59;0.20;72.20
32524;DHT22;18965;52.242;20.886;2022-12-19T20:58:27;0.30;72.10
32524;DHT22;18965;52.242;20.886;2022-12-19T21:00:54;0.20;72.20
32524;DHT22;18965;52.242;20.886;2022-12-19T21:03:21;0.30;72.20
32524;DHT22;18965;52.242;20.886;2022-12-19T21:06:14;0.30;72.30
32524;DHT22;18965;52.242;20.886;2022-12-19T21:09:25;0.40;72.40
32524;DHT22;18965;52.242;20.886;2022-12-19T21:11:51;0.40;72.20
32524;DHT22;18965;52.242;20.886;2022-12-19T21:14:17;0.40;71.90
32524;DHT22;18965;52.242;20.886;2022-12-19T21:16:43;0.40;72.00
32524;DHT22;18965;52.242;20.886;2022-12-19T21:19:09;0.40;72.20
32524;DHT22;18965;52.242;20.886;2022-12-19T21:21:35;0.40;72.10
32524;DHT22;18965;52.242;20.886;2022-12-19T21:24:00;0.40;72.20
32524;DHT22;18965;52.242;20.886;2022-12-19T21:26:26;0.50;72.30
32524;DHT22;18965;52.242;20.886;2022-12-19T21:28:53;0.50;72.50
32524;DHT22;18965;52.242;20.886;2022-12-19T21:31:25;0.50;72.30
32524;DHT22;18965;52.242;20.886;2022-12-19T21:33:59;0.60;72.40
32524;DHT22;18965;52.242;20.886;2022-12-19T21:36:26;0.60;73.00
32524;DHT22;18965;52.242;20.886;2022-12-19T21:38:56;0.60;72.30
32524;DHT22;18965;52.242;20.886;2022-12-19T21:41:22;0.70;72.40
32524;DHT22;18965;52.242;20.886;2022-12-19T21:43:50;0.70;72.40
32524;DHT22;18965;52.242;20.886;2022-12-19T21:46:19;0.70;72.40
32524;DHT22;18965;52.242;20.886;2022-12-19T21:48:50;0.70;72.40
32524;DHT22;18965;52.242;20.886;2022-12-19T21:51:19;0.70;72.60
32524;DHT22;18965;52.242;20.886;2022-12-19T21:53:45;0.80;72.80
32524;DHT22;18965;52.242;20.886;2022-12-19T21:56:25;0.80;72.70
32524;DHT22;18965;52.242;20.886;2022-12-19T21:58:56;0.90;72.80
32524;DHT22;18965;52.242;20.886;2022-12-19T22:01:23;0.90;72.80
32524;DHT22;18965;52.242;20.886;2022-12-19T22:03:50;0.90;72.80
32524;DHT22;18965;52.242;20.886;2022-12-19T22:06:19;0.90;73.00
32524;DHT22;18965;52.242;20.886;2022-12-19T22:08:46;1.00;73.10
32524;DHT22;18965;52.242;20.886;2022-12-19T22:11:14;1.00;73.10
32524;DHT22;18965;52.242;20.886;2022-12-19T22:13:40;1.00;72.80
32524;DHT22;18965;52.242;20.886;2022-12-19T22:16:08;1.10;72.80
32524;DHT22;18965;52.242;20.886;2022-12-19T22:18:34;1.10;72.90
32524;DHT22;18965;52.242;20.886;2022-12-19T22:20:59;1.10;72.90
32524;DHT22;18965;52.242;20.886;2022-12-19T22:23:26;1.10;72.80
32524;DHT22;18965;52.242;20.886;2022-12-19T22:26:06;1.10;72.90
32524;DHT22;18965;52.242;20.886;2022-12-19T22:28:37;1.20;72.90
32524;DHT22;18965;52.242;20.886;2022-12-19T22:31:11;1.20;72.90
32524;DHT22;18965;52.242;20.886;2022-12-19T22:33:38;1.20;72.90
32524;DHT22;18965;52.242;20.886;2022-12-19T22:36:05;1.20;72.80
32524;DHT22;18965;52.242;20.886;2022-12-19T22:38:30;1.20;72.70
32524;DHT22;18965;52.242;20.886;2022-12-19T22:41:02;1.20;72.90
32524;DHT22;18965;52.242;20.886;2022-12-19T22:43:28;1.20;72.90
32524;DHT22;18965;52.242;20.886;2022-12-19T22:45:54;1.30;73.10
32524;DHT22;18965;52.242;20.886;2022-12-19T22:48:20;1.30;73.20
32524;DHT22;18965;52.242;20.886;2022-12-19T22:50:46;1.30;73.20
32524;DHT22;18965;52.242;20.886;2022-12-19T22:53:13;1.40;73.40
32524;DHT22;18965;52.242;20.886;2022-12-19T22:55:40;1.40;73.20
32524;DHT22;18965;52.242;20.886;2022-12-19T22:58:06;1.40;73.30
32524;DHT22;18965;52.242;20.886;2022-12-19T23:00:33;1.50;73.20
32524;DHT22;18965;52.242;20.886;2022-12-19T23:03:00;1.40;73.10
32524;DHT22;18965;52.242;20.886;2022-12-19T23:05:25;1.50;73.30
32524;DHT22;18965;52.242;20.886;2022-12-19T23:07:51;1.50;73.40
32524;DHT22;18965;52.242;20.886;2022-12-19T23:10:17;1.50;73.40
32524;DHT22;18965;52.242;20.886;2022-12-19T23:12:43;1.60;73.50
32524;DHT22;18965;52.242;20.886;2022-12-19T23:15:09;1.60;73.60
32524;DHT22;18965;52.242;20.886;2022-12-19T23:17:35;1.60;73.50
32524;DHT22;18965;52.242;20.886;2022-12-19T23:20:02;1.60;73.60
32524;DHT22;18965;52.242;20.886;2022-12-19T23:22:28;1.70;73.70
32524;DHT22;18965;52.242;20.886;2022-12-19T23:24:53;1.70;73.80
32524;DHT22;18965;52.242;20.886;2022-12-19T23:27:19;1.70;73.80
32524;DHT22;18965;52.242;20.886;2022-12-19T23:29:48;1.70;73.90
32524;DHT22;18965;52.242;20.886;2022-12-19T23:32:14;1.80;74.20